sensor_id;sensor_type;location;lat;lon;timestamp;P1;durP1;ratioP1;P2;durP2;ratioP2
45206;SDS011;30950;53.086;21.576;2023-03-17T00:01:40;105.25;;;50.28;;
45206;SDS011;30950;53.086;21.576;2023-03-17T00:04:11;104.93;;;50.70;;
45206;SDS011;30950;53.086;21.576;2023-03-17T00:06:39;85.95;;;42.65;;
45206;SDS011;30950;53.086;21.576;2023-03-17T00:09:13;87.40;;;44.83;;
45206;SDS011;30950;53.086;21.576;2023-03-17T00:11:43;81.20;;;41.92;;
45206;SDS011;30950;53.086;21.576;2023-03-17T00:14:11;80.80;;;41.88;;
45206;SDS011;30950;53.086;21.576;2023-03-17T00:16:43;78.45;;;42.03;;
45206;SDS011;30950;53.086;21.576;2023-03-17T00:19:16;89.10;;;41.55;;
45206;SDS011;30950;53.086;21.576;2023-03-17T00:21:59;73.05;;;39.28;;
45206;SDS011;30950;53.086;21.576;2023-03-17T00:24:27;78.03;;;38.05;;
45206;SDS011;30950;53.086;21.576;2023-03-17T00:26:55;62.65;;;33.88;;
45206;SDS011;30950;53.086;21.576;2023-03-17T00:29:22;61.67;;;32.63;;
45206;SDS011;30950;53.086;21.576;2023-03-17T00:31:51;69.45;;;37.38;;
45206;SDS011;30950;53.086;21.576;2023-03-17T00:34:21;75.05;;;38.35;;
45206;SDS011;30950;53.086;21.576;2023-03-17T00:36:49;65.00;;;33.95;;
45206;SDS011;30950;53.086;21.576;2023-03-17T00:39:16;76.53;;;40.10;;
45206;SDS011;30950;53.086;21.576;2023-03-17T00:41:44;65.90;;;37.85;;
45206;SDS011;30950;53.086;21.576;2023-03-17T00:44:11;76.57;;;41.25;;
45206;SDS011;30950;53.086;21.576;2023-03-17T00:46:38;79.13;;;39.05;;
45206;SDS011;30950;53.086;21.576;2023-03-17T00:49:14;82.32;;;41.15;;
45206;SDS011;30950;53.086;21.576;2023-03-17T00:51:43;88.05;;;39.92;;
45206;SDS011;30950;53.086;21.576;2023-03-17T00:54:13;81.53;;;42.35;;
45206;SDS011;30950;53.086;21.576;2023-03-17T00:56:41;77.60;;;40.67;;
45206;SDS011;30950;53.086;21.576;2023-03-17T01:01:56;79.35;;;38.30;;
45206;SDS011;30950;53.086;21.576;2023-03-17T01:04:23;80.05;;;40.55;;
45206;SDS011;30950;53.086;21.576;2023-03-17T01:06:51;77.78;;;40.72;;
45206;SDS011;30950;53.086;21.576;2023-03-17T01:09:19;80.57;;;40.33;;
45206;SDS011;30950;53.086;21.576;2023-03-17T01:11:51;77.28;;;36.83;;
45206;SDS011;30950;53.086;21.576;2023-03-17T01:14:20;69.30;;;37.33;;
45206;SDS011;30950;53.086;21.576;2023-03-17T01:16:48;75.25;;;39.63;;
45206;SDS011;30950;53.086;21.576;2023-03-17T01:19:16;73.43;;;38.08;;
45206;SDS011;30950;53.086;21.576;2023-03-17T01:21:44;70.32;;;38.47;;
45206;SDS011;30950;53.086;21.576;2023-03-17T01:24:12;76.15;;;37.90;;
45206;SDS011;30950;53.086;21.576;2023-03-17T01:26:40;73.28;;;35.97;;
45206;SDS011;30950;53.086;21.576;2023-03-17T01:29:07;69.85;;;37.00;;
45206;SDS011;30950;53.086;21.576;2023-03-17T01:31:34;70.07;;;36.75;;
45206;SDS011;30950;53.086;21.576;2023-03-17T01:34:04;64.72;;;33.72;;
45206;SDS011;30950;53.086;21.576;2023-03-17T01:36:32;67.82;;;37.25;;
45206;SDS011;30950;53.086;21.576;2023-03-17T01:38:59;65.03;;;35.08;;
45206;SDS011;30950;53.086;21.576;2023-03-17T01:41:27;65.35;;;32.67;;
45206;SDS011;30950;53.086;21.576;2023-03-17T01:43:58;59.75;;;31.23;;
45206;SDS011;30950;53.086;21.576;2023-03-17T01:46:29;54.10;;;31.25;;
45206;SDS011;30950;53.086;21.576;2023-03-17T01:57:15;55.83;;;28.42;;
45206;SDS011;30950;53.086;21.576;2023-03-17T01:59:52;49.92;;;29.48;;
45206;SDS011;30950;53.086;21.576;2023-03-17T02:02:29;54.33;;;26.70;;
45206;SDS011;30950;53.086;21.576;2023-03-17T02:04:58;50.22;;;28.67;;
45206;SDS011;30950;53.086;21.576;2023-03-17T02:07:28;46.80;;;27.52;;
45206;SDS011;30950;53.086;21.576;2023-03-17T02:09:56;45.92;;;25.02;;
45206;SDS011;30950;53.086;21.576;2023-03-17T02:12:25;44.28;;;25.80;;
45206;SDS011;30950;53.086;21.576;2023-03-17T02:14:55;50.40;;;29.02;;
45206;SDS011;30950;53.086;21.576;2023-03-17T02:17:24;58.20;;;31.50;;
45206;SDS011;30950;53.086;21.576;2023-03-17T02:19:53;53.72;;;28.55;;
45206;SDS011;30950;53.086;21.576;2023-03-17T02:22:22;52.22;;;26.38;;
45206;SDS011;30950;53.086;21.576;2023-03-17T02:24:50;48.00;;;26.95;;
45206;SDS011;30950;53.086;21.576;2023-03-17T02:27:26;50.60;;;28.23;;
45206;SDS011;30950;53.086;21.576;2023-03-17T02:30:00;60.83;;;29.85;;
45206;SDS011;30950;53.086;21.576;2023-03-17T02:32:28;52.80;;;28.98;;
45206;SDS011;30950;53.086;21.576;2023-03-17T02:34:56;52.67;;;28.98;;
45206;SDS011;30950;53.086;21.576;2023-03-17T02:37:24;50.75;;;26.10;;
45206;SDS011;30950;53.086;21.576;2023-03-17T02:39:51;55.40;;;29.90;;
45206;SDS011;30950;53.086;21.576;2023-03-17T02:42:19;52.38;;;29.45;;
45206;SDS011;30950;53.086;21.576;2023-03-17T02:44:46;58.63;;;29.85;;
45206;SDS011;30950;53.086;21.576;2023-03-17T02:47:14;55.65;;;30.88;;
45206;SDS011;30950;53.086;21.576;2023-03-17T02:49:41;58.53;;;30.50;;
45206;SDS011;30950;53.086;21.576;2023-03-17T02:52:10;59.13;;;28.95;;
45206;SDS011;30950;53.086;21.576;2023-03-17T02:54:38;57.13;;;28.95;;
45206;SDS011;30950;53.086;21.576;2023-03-17T02:57:06;56.50;;;30.02;;
45206;SDS011;30950;53.086;21.576;2023-03-17T02:59:34;53.53;;;28.85;;
45206;SDS011;30950;53.086;21.576;2023-03-17T03:02:02;58.30;;;31.63;;
45206;SDS011;30950;53.086;21.576;2023-03-17T03:04:29;58.70;;;31.98;;
45206;SDS011;30950;53.086;21.576;2023-03-17T03:07:00;61.92;;;29.92;;
45206;SDS011;30950;53.086;21.576;2023-03-17T03:09:28;59.83;;;31.45;;
45206;SDS011;30950;53.086;21.576;2023-03-17T03:11:55;55.45;;;31.55;;
45206;SDS011;30950;53.086;21.576;2023-03-17T03:14:22;62.83;;;31.55;;
45206;SDS011;30950;53.086;21.576;2023-03-17T03:16:50;51.75;;;30.83;;
45206;SDS011;30950;53.086;21.576;2023-03-17T03:19:17;51.83;;;29.27;;
45206;SDS011;30950;53.086;21.576;2023-03-17T03:21:45;57.83;;;30.52;;
45206;SDS011;30950;53.086;21.576;2023-03-17T03:24:12;59.58;;;31.13;;
45206;SDS011;30950;53.086;21.576;2023-03-17T03:26:39;61.22;;;35.25;;
45206;SDS011;30950;53.086;21.576;2023-03-17T03:29:06;63.70;;;34.92;;
45206;SDS011;30950;53.086;21.576;2023-03-17T03:31:34;68.47;;;36.65;;
45206;SDS011;30950;53.086;21.576;2023-03-17T03:34:01;64.90;;;34.58;;
45206;SDS011;30950;53.086;21.576;2023-03-17T03:36:30;74.60;;;37.45;;
45206;SDS011;30950;53.086;21.576;2023-03-17T03:38:57;70.63;;;39.63;;
45206;SDS011;30950;53.086;21.576;2023-03-17T03:41:26;79.40;;;39.75;;
45206;SDS011;30950;53.086;21.576;2023-03-17T03:43:53;73.93;;;39.75;;
45206;SDS011;30950;53.086;21.576;2023-03-17T03:46:21;80.82;;;39.30;;
45206;SDS011;30950;53.086;21.576;2023-03-17T03:48:48;73.57;;;38.85;;
45206;SDS011;30950;53.086;21.576;2023-03-17T03:51:15;73.68;;;39.20;;
45206;SDS011;30950;53.086;21.576;2023-03-17T03:53:43;71.22;;;37.90;;
45206;SDS011;30950;53.086;21.576;2023-03-17T03:56:10;79.53;;;41.13;;
45206;SDS011;30950;53.086;21.576;2023-03-17T03:58:37;80.00;;;41.92;;
45206;SDS011;30950;53.086;21.576;2023-03-17T04:01:06;81.95;;;42.10;;
45206;SDS011;30950;53.086;21.576;2023-03-17T04:03:35;71.32;;;36.83;;
45206;SDS011;30950;53.086;21.576;2023-03-17T04:06:04;68.18;;;38.33;;
45206;SDS011;30950;53.086;21.576;2023-03-17T04:08:31;65.80;;;37.00;;
45206;SDS011;30950;53.086;21.576;2023-03-17T04:10:59;78.68;;;42.17;;
45206;SDS011;30950;53.086;21.576;2023-03-17T04:13:26;80.32;;;41.42;;
45206;SDS011;30950;53.086;21.576;2023-03-17T04:15:53;87.65;;;42.08;;
45206;SDS011;30950;53.086;21.576;2023-03-17T04:18:20;81.30;;;40.20;;
45206;SDS011;30950;53.086;21.576;2023-03-17T04:20:48;77.97;;;40.75;;
45206;SDS011;30950;53.086;21.576;2023-03-17T04:23:15;71.38;;;39.03;;
45206;SDS011;30950;53.086;21.576;2023-03-17T04:25:43;86.32;;;42.30;;
45206;SDS011;30950;53.086;21.576;2023-03-17T04:28:10;81.57;;;43.15;;
45206;SDS011;30950;53.086;21.576;2023-03-17T04:30:38;80.03;;;41.75;;
45206;SDS011;30950;53.086;21.576;2023-03-17T04:33:05;78.20;;;41.88;;
45206;SDS011;30950;53.086;21.576;2023-03-17T04:35:33;78.65;;;43.40;;
45206;SDS011;30950;53.086;21.576;2023-03-17T04:38:00;74.63;;;38.60;;
45206;SDS011;30950;53.086;21.576;2023-03-17T04:40:28;82.20;;;37.88;;
45206;SDS011;30950;53.086;21.576;2023-03-17T04:42:56;76.63;;;39.65;;
45206;SDS011;30950;53.086;21.576;2023-03-17T04:45:24;71.65;;;38.05;;
45206;SDS011;30950;53.086;21.576;2023-03-17T04:47:51;78.75;;;38.15;;
45206;SDS011;30950;53.086;21.576;2023-03-17T04:50:18;76.68;;;39.22;;
45206;SDS011;30950;53.086;21.576;2023-03-17T04:52:46;76.93;;;38.85;;
45206;SDS011;30950;53.086;21.576;2023-03-17T04:55:13;67.78;;;34.67;;
45206;SDS011;30950;53.086;21.576;2023-03-17T04:57:42;65.68;;;34.03;;
45206;SDS011;30950;53.086;21.576;2023-03-17T05:00:10;58.20;;;32.58;;
45206;SDS011;30950;53.086;21.576;2023-03-17T05:02:38;62.60;;;33.25;;
45206;SDS011;30950;53.086;21.576;2023-03-17T05:05:06;61.08;;;31.60;;
45206;SDS011;30950;53.086;21.576;2023-03-17T05:07:34;54.72;;;29.70;;
45206;SDS011;30950;53.086;21.576;2023-03-17T05:10:01;57.35;;;30.15;;
45206;SDS011;30950;53.086;21.576;2023-03-17T05:12:29;58.78;;;30.38;;
45206;SDS011;30950;53.086;21.576;2023-03-17T05:14:57;56.33;;;30.52;;
45206;SDS011;30950;53.086;21.576;2023-03-17T05:17:24;55.47;;;29.45;;
45206;SDS011;30950;53.086;21.576;2023-03-17T05:19:52;54.38;;;29.83;;
45206;SDS011;30950;53.086;21.576;2023-03-17T05:22:19;52.35;;;26.98;;
45206;SDS011;30950;53.086;21.576;2023-03-17T05:24:46;51.83;;;27.33;;
45206;SDS011;30950;53.086;21.576;2023-03-17T05:27:14;53.30;;;28.75;;
45206;SDS011;30950;53.086;21.576;2023-03-17T05:29:41;54.08;;;27.90;;
45206;SDS011;30950;53.086;21.576;2023-03-17T05:32:08;53.50;;;29.50;;
45206;SDS011;30950;53.086;21.576;2023-03-17T05:34:36;45.80;;;27.65;;
45206;SDS011;30950;53.086;21.576;2023-03-17T05:37:03;42.80;;;24.10;;
45206;SDS011;30950;53.086;21.576;2023-03-17T05:39:31;44.85;;;26.70;;
45206;SDS011;30950;53.086;21.576;2023-03-17T05:41:59;48.30;;;27.15;;
45206;SDS011;30950;53.086;21.576;2023-03-17T05:44:26;43.70;;;24.83;;
45206;SDS011;30950;53.086;21.576;2023-03-17T05:46:53;48.45;;;26.58;;
45206;SDS011;30950;53.086;21.576;2023-03-17T05:49:21;52.42;;;27.40;;
45206;SDS011;30950;53.086;21.576;2023-03-17T05:51:50;45.13;;;25.67;;
45206;SDS011;30950;53.086;21.576;2023-03-17T05:54:18;42.35;;;26.55;;
45206;SDS011;30950;53.086;21.576;2023-03-17T05:56:45;44.63;;;25.33;;
45206;SDS011;30950;53.086;21.576;2023-03-17T05:59:12;45.33;;;24.02;;
45206;SDS011;30950;53.086;21.576;2023-03-17T06:01:43;43.40;;;26.40;;
45206;SDS011;30950;53.086;21.576;2023-03-17T06:04:11;46.08;;;26.33;;
45206;SDS011;30950;53.086;21.576;2023-03-17T06:06:39;44.70;;;25.75;;
45206;SDS011;30950;53.086;21.576;2023-03-17T06:09:07;48.08;;;25.98;;
45206;SDS011;30950;53.086;21.576;2023-03-17T06:11:34;41.63;;;23.88;;
45206;SDS011;30950;53.086;21.576;2023-03-17T06:14:02;45.33;;;26.73;;
45206;SDS011;30950;53.086;21.576;2023-03-17T06:16:30;40.47;;;25.48;;
45206;SDS011;30950;53.086;21.576;2023-03-17T06:18:59;43.95;;;25.33;;
45206;SDS011;30950;53.086;21.576;2023-03-17T06:21:26;41.63;;;25.63;;
45206;SDS011;30950;53.086;21.576;2023-03-17T06:23:54;38.85;;;25.25;;
45206;SDS011;30950;53.086;21.576;2023-03-17T06:26:21;39.67;;;25.30;;
45206;SDS011;30950;53.086;21.576;2023-03-17T06:28:48;46.33;;;25.67;;
45206;SDS011;30950;53.086;21.576;2023-03-17T06:31:16;40.88;;;24.77;;
45206;SDS011;30950;53.086;21.576;2023-03-17T06:33:43;43.45;;;26.70;;
45206;SDS011;30950;53.086;21.576;2023-03-17T06:36:11;41.85;;;25.58;;
45206;SDS011;30950;53.086;21.576;2023-03-17T06:38:39;39.22;;;24.20;;
45206;SDS011;30950;53.086;21.576;2023-03-17T06:41:06;42.60;;;26.10;;
45206;SDS011;30950;53.086;21.576;2023-03-17T06:43:34;42.83;;;25.60;;
45206;SDS011;30950;53.086;21.576;2023-03-17T06:46:02;39.50;;;25.05;;
45206;SDS011;30950;53.086;21.576;2023-03-17T06:48:29;38.60;;;23.23;;
45206;SDS011;30950;53.086;21.576;2023-03-17T06:50:57;34.50;;;21.90;;
45206;SDS011;30950;53.086;21.576;2023-03-17T06:53:24;37.72;;;23.90;;
45206;SDS011;30950;53.086;21.576;2023-03-17T06:55:51;41.53;;;25.55;;
45206;SDS011;30950;53.086;21.576;2023-03-17T06:58:19;37.83;;;24.27;;
45206;SDS011;30950;53.086;21.576;2023-03-17T07:00:47;38.40;;;23.08;;
45206;SDS011;30950;53.086;21.576;2023-03-17T07:03:14;40.10;;;23.77;;
45206;SDS011;30950;53.086;21.576;2023-03-17T07:05:42;33.40;;;21.48;;
45206;SDS011;30950;53.086;21.576;2023-03-17T07:08:10;45.35;;;26.60;;
45206;SDS011;30950;53.086;21.576;2023-03-17T07:10:39;47.00;;;26.92;;
45206;SDS011;30950;53.086;21.576;2023-03-17T07:13:09;49.42;;;28.00;;
45206;SDS011;30950;53.086;21.576;2023-03-17T07:15:36;39.80;;;26.52;;
45206;SDS011;30950;53.086;21.576;2023-03-17T07:18:04;40.08;;;25.75;;
45206;SDS011;30950;53.086;21.576;2023-03-17T07:20:32;40.05;;;24.90;;
45206;SDS011;30950;53.086;21.576;2023-03-17T07:23:00;44.40;;;27.95;;
45206;SDS011;30950;53.086;21.576;2023-03-17T07:25:27;44.03;;;27.85;;
45206;SDS011;30950;53.086;21.576;2023-03-17T07:27:55;40.63;;;26.23;;
45206;SDS011;30950;53.086;21.576;2023-03-17T07:30:22;38.63;;;23.10;;
45206;SDS011;30950;53.086;21.576;2023-03-17T07:32:50;38.80;;;23.75;;
45206;SDS011;30950;53.086;21.576;2023-03-17T07:35:17;44.83;;;30.05;;
45206;SDS011;30950;53.086;21.576;2023-03-17T07:37:45;35.00;;;24.02;;
45206;SDS011;30950;53.086;21.576;2023-03-17T07:40:12;32.63;;;20.85;;
45206;SDS011;30950;53.086;21.576;2023-03-17T07:42:40;38.17;;;24.95;;
45206;SDS011;30950;53.086;21.576;2023-03-17T07:45:08;31.05;;;20.77;;
45206;SDS011;30950;53.086;21.576;2023-03-17T07:47:35;34.22;;;20.77;;
45206;SDS011;30950;53.086;21.576;2023-03-17T07:50:03;30.88;;;20.80;;
45206;SDS011;30950;53.086;21.576;2023-03-17T07:52:32;30.92;;;19.98;;
45206;SDS011;30950;53.086;21.576;2023-03-17T07:55:00;32.88;;;20.38;;
45206;SDS011;30950;53.086;21.576;2023-03-17T07:57:28;32.00;;;20.25;;
45206;SDS011;30950;53.086;21.576;2023-03-17T07:59:55;26.38;;;17.35;;
45206;SDS011;30950;53.086;21.576;2023-03-17T08:02:23;26.08;;;17.33;;
45206;SDS011;30950;53.086;21.576;2023-03-17T08:04:50;30.17;;;17.85;;
45206;SDS011;30950;53.086;21.576;2023-03-17T08:07:19;27.30;;;16.75;;
45206;SDS011;30950;53.086;21.576;2023-03-17T08:09:46;26.10;;;16.17;;
45206;SDS011;30950;53.086;21.576;2023-03-17T08:12:14;23.77;;;15.82;;
45206;SDS011;30950;53.086;21.576;2023-03-17T08:14:41;22.90;;;15.82;;
45206;SDS011;30950;53.086;21.576;2023-03-17T08:17:09;24.40;;;16.80;;
45206;SDS011;30950;53.086;21.576;2023-03-17T08:19:36;22.00;;;15.57;;
45206;SDS011;30950;53.086;21.576;2023-03-17T08:22:04;25.15;;;14.50;;
45206;SDS011;30950;53.086;21.576;2023-03-17T08:24:32;25.98;;;14.52;;
45206;SDS011;30950;53.086;21.576;2023-03-17T08:27:00;24.77;;;14.55;;
45206;SDS011;30950;53.086;21.576;2023-03-17T08:29:27;22.63;;;14.95;;
45206;SDS011;30950;53.086;21.576;2023-03-17T08:31:56;19.45;;;13.30;;
45206;SDS011;30950;53.086;21.576;2023-03-17T08:34:23;25.25;;;14.95;;
45206;SDS011;30950;53.086;21.576;2023-03-17T08:36:52;21.63;;;13.88;;
45206;SDS011;30950;53.086;21.576;2023-03-17T08:39:19;20.92;;;13.25;;
45206;SDS011;30950;53.086;21.576;2023-03-17T08:41:49;23.15;;;13.27;;
45206;SDS011;30950;53.086;21.576;2023-03-17T08:44:16;20.35;;;13.82;;
45206;SDS011;30950;53.086;21.576;2023-03-17T08:46:44;19.50;;;13.40;;
45206;SDS011;30950;53.086;21.576;2023-03-17T08:49:11;18.23;;;12.57;;
45206;SDS011;30950;53.086;21.576;2023-03-17T08:51:39;16.90;;;13.02;;
45206;SDS011;30950;53.086;21.576;2023-03-17T08:54:07;20.40;;;12.18;;
45206;SDS011;30950;53.086;21.576;2023-03-17T08:56:35;21.05;;;13.27;;
45206;SDS011;30950;53.086;21.576;2023-03-17T08:59:04;19.38;;;11.98;;
45206;SDS011;30950;53.086;21.576;2023-03-17T09:01:32;15.70;;;11.57;;
45206;SDS011;30950;53.086;21.576;2023-03-17T09:04:00;17.60;;;10.82;;
45206;SDS011;30950;53.086;21.576;2023-03-17T09:06:28;16.75;;;11.27;;
45206;SDS011;30950;53.086;21.576;2023-03-17T09:08:57;17.33;;;11.50;;
45206;SDS011;30950;53.086;21.576;2023-03-17T09:11:27;19.42;;;12.20;;
45206;SDS011;30950;53.086;21.576;2023-03-17T09:13:55;18.33;;;11.98;;
45206;SDS011;30950;53.086;21.576;2023-03-17T09:16:23;15.55;;;11.30;;
45206;SDS011;30950;53.086;21.576;2023-03-17T09:18:51;19.10;;;12.52;;
45206;SDS011;30950;53.086;21.576;2023-03-17T09:21:18;15.55;;;11.73;;
45206;SDS011;30950;53.086;21.576;2023-03-17T09:23:46;18.08;;;11.60;;
45206;SDS011;30950;53.086;21.576;2023-03-17T09:26:14;16.77;;;11.35;;
45206;SDS011;30950;53.086;21.576;2023-03-17T09:28:41;14.98;;;10.52;;
45206;SDS011;30950;53.086;21.576;2023-03-17T09:31:11;22.50;;;14.02;;
45206;SDS011;30950;53.086;21.576;2023-03-17T09:33:39;17.10;;;12.35;;
45206;SDS011;30950;53.086;21.576;2023-03-17T09:36:08;23.20;;;11.48;;
45206;SDS011;30950;53.086;21.576;2023-03-17T09:38:36;14.68;;;10.55;;
45206;SDS011;30950;53.086;21.576;2023-03-17T09:49:21;15.60;;;11.02;;
45206;SDS011;30950;53.086;21.576;2023-03-17T09:52:16;31.50;;;17.67;;
45206;SDS011;30950;53.086;21.576;2023-03-17T09:54:50;15.88;;;10.88;;
45206;SDS011;30950;53.086;21.576;2023-03-17T09:57:39;17.27;;;11.38;;
45206;SDS011;30950;53.086;21.576;2023-03-17T10:02:42;17.13;;;11.75;;
45206;SDS011;30950;53.086;21.576;2023-03-17T10:05:24;17.95;;;11.10;;
45206;SDS011;30950;53.086;21.576;2023-03-17T10:11:00;15.45;;;10.63;;
45206;SDS011;30950;53.086;21.576;2023-03-17T10:13:41;15.77;;;10.48;;
45206;SDS011;30950;53.086;21.576;2023-03-17T10:21:32;12.00;;;8.93;;
45206;SDS011;30950;53.086;21.576;2023-03-17T10:24:02;16.92;;;9.00;;
45206;SDS011;30950;53.086;21.576;2023-03-17T10:26:43;14.20;;;9.35;;
45206;SDS011;30950;53.086;21.576;2023-03-17T10:29:21;11.27;;;8.93;;
45206;SDS011;30950;53.086;21.576;2023-03-17T10:31:50;15.25;;;9.48;;
45206;SDS011;30950;53.086;21.576;2023-03-17T10:34:24;12.82;;;8.23;;
45206;SDS011;30950;53.086;21.576;2023-03-17T10:37:08;9.50;;;7.00;;
45206;SDS011;30950;53.086;21.576;2023-03-17T10:39:50;10.05;;;7.30;;
45206;SDS011;30950;53.086;21.576;2023-03-17T10:42:27;11.50;;;7.80;;
45206;SDS011;30950;53.086;21.576;2023-03-17T10:49:56;12.80;;;8.40;;
45206;SDS011;30950;53.086;21.576;2023-03-17T10:52:29;8.85;;;6.93;;
45206;SDS011;30950;53.086;21.576;2023-03-17T10:55:03;11.85;;;7.55;;
45206;SDS011;30950;53.086;21.576;2023-03-17T10:57:34;12.45;;;8.98;;
45206;SDS011;30950;53.086;21.576;2023-03-17T11:00:15;11.18;;;6.53;;
45206;SDS011;30950;53.086;21.576;2023-03-17T11:02:54;11.70;;;7.50;;
45206;SDS011;30950;53.086;21.576;2023-03-17T11:05:27;10.97;;;6.90;;
45206;SDS011;30950;53.086;21.576;2023-03-17T11:07:56;13.18;;;6.82;;
45206;SDS011;30950;53.086;21.576;2023-03-17T11:10:35;11.82;;;7.07;;
45206;SDS011;30950;53.086;21.576;2023-03-17T11:13:04;10.40;;;6.72;;
45206;SDS011;30950;53.086;21.576;2023-03-17T11:15:38;10.93;;;5.07;;
45206;SDS011;30950;53.086;21.576;2023-03-17T11:18:17;8.13;;;5.32;;
45206;SDS011;30950;53.086;21.576;2023-03-17T11:23:37;10.55;;;6.25;;
45206;SDS011;30950;53.086;21.576;2023-03-17T11:48:42;8.18;;;5.80;;
45206;SDS011;30950;53.086;21.576;2023-03-17T11:57:18;6.93;;;5.13;;
45206;SDS011;30950;53.086;21.576;2023-03-17T11:59:54;8.77;;;5.45;;
45206;SDS011;30950;53.086;21.576;2023-03-17T12:02:40;8.25;;;5.50;;
45206;SDS011;30950;53.086;21.576;2023-03-17T12:05:16;7.60;;;5.47;;
45206;SDS011;30950;53.086;21.576;2023-03-17T12:07:49;8.35;;;5.43;;
45206;SDS011;30950;53.086;21.576;2023-03-17T12:10:31;8.77;;;5.35;;
45206;SDS011;30950;53.086;21.576;2023-03-17T12:13:07;8.20;;;5.03;;
45206;SDS011;30950;53.086;21.576;2023-03-17T12:16:01;9.05;;;5.38;;
45206;SDS011;30950;53.086;21.576;2023-03-17T12:18:37;8.07;;;4.85;;
45206;SDS011;30950;53.086;21.576;2023-03-17T12:24:22;12.07;;;5.15;;
45206;SDS011;30950;53.086;21.576;2023-03-17T12:27:04;8.07;;;5.05;;
45206;SDS011;30950;53.086;21.576;2023-03-17T12:29:54;7.82;;;5.07;;
45206;SDS011;30950;53.086;21.576;2023-03-17T12:32:40;7.53;;;4.97;;
45206;SDS011;30950;53.086;21.576;2023-03-17T12:37:58;8.27;;;5.07;;
45206;SDS011;30950;53.086;21.576;2023-03-17T12:40:33;7.93;;;4.45;;
45206;SDS011;30950;53.086;21.576;2023-03-17T12:43:31;6.88;;;4.22;;
45206;SDS011;30950;53.086;21.576;2023-03-17T12:51:55;7.25;;;4.18;;
45206;SDS011;30950;53.086;21.576;2023-03-17T12:54:43;7.63;;;4.55;;
45206;SDS011;30950;53.086;21.576;2023-03-17T12:57:21;7.88;;;5.93;;
45206;SDS011;30950;53.086;21.576;2023-03-17T12:59:56;9.70;;;5.18;;
45206;SDS011;30950;53.086;21.576;2023-03-17T13:02:36;10.15;;;4.95;;
45206;SDS011;30950;53.086;21.576;2023-03-17T13:05:08;11.48;;;6.30;;
45206;SDS011;30950;53.086;21.576;2023-03-17T13:07:50;9.35;;;5.45;;
45206;SDS011;30950;53.086;21.576;2023-03-17T13:10:40;10.30;;;6.15;;
45206;SDS011;30950;53.086;21.576;2023-03-17T13:13:15;11.18;;;6.20;;
45206;SDS011;30950;53.086;21.576;2023-03-17T13:16:24;11.25;;;5.88;;
45206;SDS011;30950;53.086;21.576;2023-03-17T13:19:17;8.90;;;5.50;;
45206;SDS011;30950;53.086;21.576;2023-03-17T13:21:51;9.90;;;5.60;;
45206;SDS011;30950;53.086;21.576;2023-03-17T13:24:49;10.98;;;5.45;;
45206;SDS011;30950;53.086;21.576;2023-03-17T13:29:58;9.75;;;5.43;;
45206;SDS011;30950;53.086;21.576;2023-03-17T13:49:14;11.45;;;5.90;;
45206;SDS011;30950;53.086;21.576;2023-03-17T13:51:54;9.63;;;5.50;;
45206;SDS011;30950;53.086;21.576;2023-03-17T13:54:34;10.43;;;5.72;;
45206;SDS011;30950;53.086;21.576;2023-03-17T13:57:27;11.45;;;5.43;;
45206;SDS011;30950;53.086;21.576;2023-03-17T14:02:43;11.73;;;6.07;;
45206;SDS011;30950;53.086;21.576;2023-03-17T14:05:16;13.95;;;6.88;;
45206;SDS011;30950;53.086;21.576;2023-03-17T14:07:47;14.38;;;6.85;;
45206;SDS011;30950;53.086;21.576;2023-03-17T14:10:24;10.40;;;6.03;;
45206;SDS011;30950;53.086;21.576;2023-03-17T14:16:26;12.85;;;6.53;;
45206;SDS011;30950;53.086;21.576;2023-03-17T14:18:59;10.00;;;5.82;;
45206;SDS011;30950;53.086;21.576;2023-03-17T14:21:42;12.73;;;6.28;;
45206;SDS011;30950;53.086;21.576;2023-03-17T14:26:50;11.90;;;6.47;;
45206;SDS011;30950;53.086;21.576;2023-03-17T14:29:20;14.27;;;7.75;;
45206;SDS011;30950;53.086;21.576;2023-03-17T14:32:02;19.02;;;8.38;;
45206;SDS011;30950;53.086;21.576;2023-03-17T14:34:29;13.20;;;7.53;;
45206;SDS011;30950;53.086;21.576;2023-03-17T14:37:01;15.90;;;7.18;;
45206;SDS011;30950;53.086;21.576;2023-03-17T14:39:29;15.77;;;7.57;;
45206;SDS011;30950;53.086;21.576;2023-03-17T14:42:01;13.63;;;7.50;;
45206;SDS011;30950;53.086;21.576;2023-03-17T14:44:40;16.13;;;8.32;;
45206;SDS011;30950;53.086;21.576;2023-03-17T14:47:18;12.93;;;7.22;;
45206;SDS011;30950;53.086;21.576;2023-03-17T14:49:49;13.45;;;6.93;;
45206;SDS011;30950;53.086;21.576;2023-03-17T14:52:19;18.67;;;7.28;;
45206;SDS011;30950;53.086;21.576;2023-03-17T14:54:51;17.58;;;7.78;;
45206;SDS011;30950;53.086;21.576;2023-03-17T14:57:25;15.43;;;8.93;;
45206;SDS011;30950;53.086;21.576;2023-03-17T14:59:57;16.75;;;7.47;;
45206;SDS011;30950;53.086;21.576;2023-03-17T15:02:30;14.25;;;7.55;;
45206;SDS011;30950;53.086;21.576;2023-03-17T15:05:02;13.40;;;7.70;;
45206;SDS011;30950;53.086;21.576;2023-03-17T15:07:38;14.60;;;7.95;;
45206;SDS011;30950;53.086;21.576;2023-03-17T15:10:17;13.95;;;7.70;;
45206;SDS011;30950;53.086;21.576;2023-03-17T15:12:47;16.20;;;8.98;;
45206;SDS011;30950;53.086;21.576;2023-03-17T15:15:22;17.48;;;10.00;;
45206;SDS011;30950;53.086;21.576;2023-03-17T15:17:53;17.42;;;9.82;;
45206;SDS011;30950;53.086;21.576;2023-03-17T15:20:23;15.10;;;9.27;;
45206;SDS011;30950;53.086;21.576;2023-03-17T15:23:04;15.30;;;9.13;;
45206;SDS011;30950;53.086;21.576;2023-03-17T15:25:42;13.90;;;8.82;;
45206;SDS011;30950;53.086;21.576;2023-03-17T15:28:12;17.60;;;9.32;;
45206;SDS011;30950;53.086;21.576;2023-03-17T15:30:47;15.13;;;8.60;;
45206;SDS011;30950;53.086;21.576;2023-03-17T15:33:19;21.83;;;9.70;;
45206;SDS011;30950;53.086;21.576;2023-03-17T15:35:47;15.85;;;8.70;;
45206;SDS011;30950;53.086;21.576;2023-03-17T15:38:15;16.98;;;8.85;;
45206;SDS011;30950;53.086;21.576;2023-03-17T15:40:43;15.25;;;9.80;;
45206;SDS011;30950;53.086;21.576;2023-03-17T15:43:15;19.25;;;10.25;;
45206;SDS011;30950;53.086;21.576;2023-03-17T15:45:43;17.13;;;9.07;;
45206;SDS011;30950;53.086;21.576;2023-03-17T15:48:16;15.40;;;8.75;;
45206;SDS011;30950;53.086;21.576;2023-03-17T15:50:49;16.08;;;8.82;;
45206;SDS011;30950;53.086;21.576;2023-03-17T15:53:18;13.75;;;9.02;;
45206;SDS011;30950;53.086;21.576;2023-03-17T15:55:45;16.00;;;8.50;;
45206;SDS011;30950;53.086;21.576;2023-03-17T15:58:13;16.63;;;8.10;;
45206;SDS011;30950;53.086;21.576;2023-03-17T16:00:41;14.48;;;8.10;;
45206;SDS011;30950;53.086;21.576;2023-03-17T16:03:43;17.60;;;9.13;;
45206;SDS011;30950;53.086;21.576;2023-03-17T16:06:04;18.02;;;8.25;;
45206;SDS011;30950;53.086;21.576;2023-03-17T16:08:39;17.33;;;8.80;;
45206;SDS011;30950;53.086;21.576;2023-03-17T16:11:11;16.67;;;9.40;;
45206;SDS011;30950;53.086;21.576;2023-03-17T16:13:48;14.43;;;9.93;;
45206;SDS011;30950;53.086;21.576;2023-03-17T16:16:17;24.20;;;10.93;;
45206;SDS011;30950;53.086;21.576;2023-03-17T16:19:07;19.30;;;9.90;;
45206;SDS011;30950;53.086;21.576;2023-03-17T16:21:41;20.65;;;10.52;;